createdAt,value
2018-11-07T00:00:04.370Z,100.00
2018-11-07T00:02:31.603Z,100.00
2018-11-07T00:04:59.795Z,100.00
2018-11-07T00:07:27.065Z,100.00
2018-11-07T00:10:00.360Z,100.00
2018-11-07T00:12:27.548Z,100.00
2018-11-07T00:14:54.772Z,100.00
2018-11-07T00:17:21.884Z,100.00
2018-11-07T00:19:49.106Z,100.00
2018-11-07T00:22:16.548Z,100.00
2018-11-07T00:24:46.546Z,100.00
2018-11-07T00:27:13.643Z,100.00
2018-11-07T00:29:40.845Z,100.00
2018-11-07T00:32:07.963Z,100.00
2018-11-07T00:34:35.048Z,100.00
2018-11-07T00:37:09.297Z,100.00
2018-11-07T00:39:36.462Z,100.00
2018-11-07T00:42:03.627Z,100.00
2018-11-07T00:44:30.784Z,100.00
2018-11-07T00:46:57.857Z,100.00
2018-11-07T00:49:24.931Z,100.00
2018-11-07T00:51:52.104Z,100.00
2018-11-07T00:54:19.191Z,100.00
2018-11-07T00:56:46.364Z,100.00
2018-11-07T00:59:13.937Z,100.00
2018-11-07T01:01:41.075Z,100.00
2018-11-07T01:04:08.131Z,100.00
2018-11-07T01:06:35.348Z,100.00
2018-11-07T01:09:02.560Z,100.00
2018-11-07T01:11:29.647Z,100.00
2018-11-07T01:13:57.735Z,100.00
2018-11-07T01:16:24.880Z,100.00
2018-11-07T01:18:51.956Z,100.00
2018-11-07T01:21:20.079Z,100.00
2018-11-07T01:23:47.811Z,100.00
2018-11-07T01:26:14.891Z,100.00
2018-11-07T01:28:42.196Z,100.00
2018-11-07T01:31:09.473Z,100.00
2018-11-07T01:33:36.627Z,100.00
2018-11-07T01:36:03.843Z,100.00
2018-11-07T01:38:30.913Z,100.00
2018-11-07T01:40:58.103Z,100.00
2018-11-07T01:43:25.259Z,100.00
2018-11-07T01:45:52.324Z,100.00
2018-11-07T01:48:19.916Z,100.00
2018-11-07T01:50:47.060Z,100.00
2018-11-07T01:53:14.219Z,100.00
2018-11-07T01:55:41.375Z,100.00
2018-11-07T01:58:08.432Z,100.00
2018-11-07T02:00:42.930Z,100.00
2018-11-07T02:03:10.023Z,100.00
2018-11-07T02:05:37.873Z,100.00
2018-11-07T02:08:05.763Z,100.00
2018-11-07T02:10:32.919Z,100.00
2018-11-07T02:13:00.360Z,100.00
2018-11-07T02:15:27.413Z,100.00
2018-11-07T02:17:54.567Z,100.00
2018-11-07T02:20:21.760Z,100.00
2018-11-07T02:22:48.836Z,100.00
2018-11-07T02:25:15.898Z,100.00
2018-11-07T02:27:42.984Z,100.00
2018-11-07T02:30:12.394Z,100.00
2018-11-07T02:32:39.602Z,100.00
2018-11-07T02:35:06.773Z,100.00
2018-11-07T02:37:34.124Z,100.00
2018-11-07T02:40:01.263Z,100.00
2018-11-07T02:42:28.327Z,100.00
2018-11-07T02:44:55.497Z,100.00
2018-11-07T02:47:22.660Z,100.00
2018-11-07T02:49:49.824Z,100.00
2018-11-07T02:52:16.991Z,100.00
2018-11-07T02:54:44.128Z,100.00
2018-11-07T02:57:11.263Z,100.00
2018-11-07T02:59:38.467Z,100.00
2018-11-07T03:02:05.544Z,100.00
2018-11-07T03:04:32.609Z,100.00
2018-11-07T03:06:59.859Z,100.00
2018-11-07T03:09:26.931Z,100.00
2018-11-07T03:11:55.143Z,100.00
2018-11-07T03:14:22.304Z,100.00
2018-11-07T03:16:49.432Z,100.00
2018-11-07T03:19:16.543Z,100.00
2018-11-07T03:21:43.620Z,100.00
2018-11-07T03:24:10.699Z,100.00
2018-11-07T03:26:37.936Z,100.00
2018-11-07T03:29:05.079Z,100.00
2018-11-07T03:31:32.227Z,100.00
2018-11-07T03:33:59.308Z,100.00
2018-11-07T03:36:26.475Z,100.00
2018-11-07T03:38:53.589Z,100.00
2018-11-07T03:41:20.668Z,100.00
2018-11-07T03:43:47.928Z,100.00
2018-11-07T03:46:15.112Z,100.00
2018-11-07T03:48:42.195Z,100.00
2018-11-07T03:51:09.687Z,100.00
2018-11-07T03:53:36.847Z,100.00
2018-11-07T03:56:04.020Z,100.00
2018-11-07T03:58:31.534Z,100.00
2018-11-07T04:00:58.591Z,100.00
2018-11-07T04:03:25.760Z,100.00
2018-11-07T04:05:52.819Z,100.00
2018-11-07T04:08:20.067Z,100.00
2018-11-07T04:10:47.257Z,100.00
2018-11-07T04:13:14.596Z,100.00
2018-11-07T04:15:41.655Z,100.00
2018-11-07T04:18:08.760Z,100.00
2018-11-07T04:20:36.164Z,100.00
2018-11-07T04:23:05.059Z,100.00
2018-11-07T04:25:32.156Z,100.00
2018-11-07T04:27:59.412Z,100.00
2018-11-07T04:30:26.591Z,100.00
2018-11-07T04:32:53.768Z,100.00
2018-11-07T04:35:20.913Z,100.00
2018-11-07T04:37:48.089Z,100.00
2018-11-07T04:40:15.243Z,100.00
2018-11-07T04:42:42.695Z,100.00
2018-11-07T04:45:09.771Z,100.00
2018-11-07T04:47:36.890Z,100.00
2018-11-07T04:50:06.259Z,100.00
2018-11-07T04:52:33.349Z,100.00
2018-11-07T04:55:00.503Z,100.00
2018-11-07T04:57:27.844Z,100.00
2018-11-07T04:59:54.921Z,100.00
2018-11-07T05:02:22.123Z,100.00
2018-11-07T05:04:49.321Z,100.00
2018-11-07T05:07:16.547Z,100.00
2018-11-07T05:09:43.620Z,100.00
2018-11-07T05:12:10.794Z,100.00
2018-11-07T05:14:38.031Z,100.00
2018-11-07T05:17:05.155Z,100.00
2018-11-07T05:19:32.557Z,100.00
2018-11-07T05:21:59.677Z,100.00
2018-11-07T05:24:26.774Z,100.00
2018-11-07T05:26:53.963Z,100.00
2018-11-07T05:29:21.119Z,100.00
2018-11-07T05:31:48.258Z,100.00
2018-11-07T05:34:15.327Z,100.00
2018-11-07T05:36:42.480Z,100.00
2018-11-07T05:39:10.187Z,100.00
2018-11-07T05:41:37.551Z,100.00
2018-11-07T05:44:04.751Z,100.00
2018-11-07T05:46:31.851Z,100.00
2018-11-07T05:48:59.032Z,100.00
2018-11-07T05:51:26.059Z,100.00
2018-11-07T05:53:53.231Z,100.00
2018-11-07T05:56:22.104Z,100.00
2018-11-07T05:58:49.187Z,100.00
2018-11-07T06:01:16.372Z,100.00
2018-11-07T06:03:43.565Z,100.00
2018-11-07T06:06:10.776Z,100.00
2018-11-07T06:08:37.847Z,100.00
2018-11-07T06:11:04.942Z,100.00
2018-11-07T06:13:32.536Z,100.00
2018-11-07T06:15:59.690Z,100.00
2018-11-07T06:18:26.735Z,100.00
2018-11-07T06:20:54.499Z,100.00
2018-11-07T06:23:21.769Z,100.00
2018-11-07T06:25:48.858Z,100.00
2018-11-07T06:28:17.500Z,100.00
2018-11-07T06:30:44.648Z,100.00
2018-11-07T06:33:11.891Z,100.00
2018-11-07T06:35:39.095Z,100.00
2018-11-07T06:38:06.261Z,100.00
2018-11-07T06:40:33.328Z,100.00
2018-11-07T06:43:00.484Z,100.00
2018-11-07T06:45:27.563Z,100.00
2018-11-07T06:47:54.659Z,100.00
2018-11-07T06:50:22.099Z,100.00
2018-11-07T06:52:49.252Z,100.00
2018-11-07T06:55:16.366Z,100.00
2018-11-07T06:57:43.439Z,100.00
2018-11-07T07:00:14.412Z,100.00
2018-11-07T07:02:43.508Z,100.00
2018-11-07T07:05:10.639Z,100.00
2018-11-07T07:07:38.124Z,100.00
2018-11-07T07:10:10.047Z,100.00
2018-11-07T07:12:37.221Z,100.00
2018-11-07T07:15:07.010Z,100.00
2018-11-07T07:17:34.786Z,100.00
2018-11-07T07:20:01.787Z,100.00
2018-11-07T07:22:28.859Z,100.00
2018-11-07T07:24:55.947Z,100.00
2018-11-07T07:27:23.129Z,100.00
2018-11-07T07:29:50.351Z,100.00
2018-11-07T07:32:17.746Z,100.00
2018-11-07T07:34:45.568Z,100.00
2018-11-07T07:37:13.943Z,100.00
2018-11-07T07:39:41.012Z,100.00
2018-11-07T07:42:08.107Z,100.00
2018-11-07T07:44:35.188Z,100.00
2018-11-07T07:47:02.268Z,100.00
2018-11-07T07:49:30.404Z,100.00
2018-11-07T07:51:57.487Z,100.00
2018-11-07T07:54:24.651Z,100.00
2018-11-07T07:56:51.879Z,100.00
2018-11-07T07:59:19.949Z,100.00
2018-11-07T08:01:47.065Z,100.00
2018-11-07T08:04:14.770Z,100.00
2018-11-07T08:06:41.991Z,100.00
2018-11-07T08:09:13.124Z,100.00
2018-11-07T08:11:40.612Z,100.00
2018-11-07T08:14:08.715Z,100.00
2018-11-07T08:16:35.646Z,100.00
2018-11-07T08:19:02.788Z,100.00
2018-11-07T08:21:30.022Z,100.00
2018-11-07T08:23:58.246Z,100.00
2018-11-07T08:26:25.355Z,100.00
2018-11-07T08:28:52.683Z,100.00
2018-11-07T08:31:19.939Z,100.00
2018-11-07T08:33:47.178Z,100.00
2018-11-07T08:36:14.804Z,100.00
2018-11-07T08:38:41.996Z,100.00
2018-11-07T08:41:09.131Z,100.00
2018-11-07T08:43:36.338Z,100.00
2018-11-07T08:46:04.073Z,100.00
2018-11-07T08:48:31.183Z,100.00
2018-11-07T08:50:58.256Z,100.00
2018-11-07T08:53:25.865Z,100.00
2018-11-07T08:55:54.079Z,100.00
2018-11-07T08:58:21.136Z,100.00
2018-11-07T09:00:48.275Z,100.00
2018-11-07T09:03:15.851Z,100.00
2018-11-07T09:05:42.937Z,100.00
2018-11-07T09:08:10.174Z,100.00
2018-11-07T09:10:38.452Z,100.00
2018-11-07T09:13:05.604Z,100.00
2018-11-07T09:15:32.667Z,100.00
2018-11-07T09:17:59.735Z,100.00
2018-11-07T09:20:27.415Z,100.00
2018-11-07T09:22:54.812Z,100.00
2018-11-07T09:25:21.890Z,100.00
2018-11-07T09:27:49.365Z,100.00
2018-11-07T09:30:19.736Z,100.00
2018-11-07T09:32:47.113Z,100.00
2018-11-07T09:35:14.579Z,100.00
2018-11-07T09:37:41.816Z,100.00
2018-11-07T09:40:17.095Z,100.00
2018-11-07T09:42:45.008Z,100.00
2018-11-07T09:45:14.692Z,100.00
2018-11-07T09:47:44.165Z,100.00
2018-11-07T09:50:12.691Z,100.00
2018-11-07T09:52:40.063Z,100.00
2018-11-07T09:55:11.591Z,100.00
2018-11-07T09:57:39.390Z,100.00
2018-11-07T10:00:12.677Z,100.00
2018-11-07T10:02:40.236Z,100.00
2018-11-07T10:05:08.744Z,100.00
2018-11-07T10:07:43.091Z,100.00
2018-11-07T10:10:13.273Z,100.00
2018-11-07T10:12:41.600Z,100.00
2018-11-07T10:15:10.799Z,100.00
2018-11-07T10:17:38.127Z,100.00
2018-11-07T10:20:10.218Z,100.00
2018-11-07T10:22:37.343Z,98.52
2018-11-07T10:25:05.546Z,97.93
2018-11-07T10:27:33.025Z,93.86
2018-11-07T10:30:00.225Z,92.50
2018-11-07T10:32:27.856Z,93.07
2018-11-07T10:34:55.143Z,92.62
2018-11-07T10:37:32.141Z,88.78
2018-11-07T10:39:49.514Z,86.26
2018-11-07T10:42:16.739Z,86.93
2018-11-07T10:44:43.920Z,87.14
2018-11-07T10:47:11.168Z,85.33
2018-11-07T10:49:38.392Z,83.68
2018-11-07T10:52:07.181Z,83.61
2018-11-07T10:54:34.915Z,83.69
2018-11-07T10:57:02.417Z,84.74
2018-11-07T10:59:29.576Z,84.69
2018-11-07T11:02:04.313Z,84.67
2018-11-07T11:04:31.489Z,85.31
2018-11-07T11:06:58.648Z,85.47
2018-11-07T11:09:26.776Z,85.28
2018-11-07T11:11:53.865Z,84.48
2018-11-07T11:14:22.672Z,83.64
2018-11-07T11:16:49.776Z,83.72
2018-11-07T11:19:16.951Z,81.61
2018-11-07T11:21:44.187Z,83.37
2018-11-07T11:24:12.210Z,84.31
2018-11-07T11:26:39.440Z,84.23
2018-11-07T11:29:08.131Z,84.37
2018-11-07T11:31:36.471Z,84.86
2018-11-07T11:34:06.167Z,84.49
2018-11-07T11:36:32.936Z,84.42
2018-11-07T11:39:00.243Z,83.62
2018-11-07T11:41:28.448Z,84.20
2018-11-07T11:43:55.591Z,84.24
2018-11-07T11:46:22.945Z,84.94
2018-11-07T11:48:51.031Z,84.55
2018-11-07T11:51:19.074Z,84.08
2018-11-07T11:53:46.187Z,84.68
2018-11-07T11:56:13.983Z,83.61
2018-11-07T11:58:42.040Z,81.43
2018-11-07T12:01:10.805Z,81.68
2018-11-07T12:03:37.896Z,81.22
2018-11-07T12:06:06.528Z,80.59
2018-11-07T12:08:34.411Z,80.20
2018-11-07T12:11:01.992Z,80.22
2018-11-07T12:13:29.314Z,79.89
2018-11-07T12:16:03.340Z,77.99
2018-11-07T12:18:33.547Z,77.93
2018-11-07T12:21:01.122Z,77.25
2018-11-07T12:23:28.753Z,75.85
2018-11-07T12:25:55.983Z,75.79
2018-11-07T12:28:23.105Z,76.76
2018-11-07T12:30:50.358Z,75.78
2018-11-07T12:33:17.664Z,75.93
2018-11-07T12:35:44.920Z,74.80
2018-11-07T12:38:12.181Z,73.35
2018-11-07T12:40:39.283Z,73.41
2018-11-07T12:43:07.108Z,72.58
2018-11-07T12:45:34.584Z,70.95
2018-11-07T12:48:02.044Z,70.83
2018-11-07T12:50:29.177Z,68.61
2018-11-07T12:52:56.229Z,67.99
2018-11-07T12:55:23.392Z,67.60
2018-11-07T12:57:50.650Z,67.88
2018-11-07T13:00:20.407Z,69.60
2018-11-07T13:02:47.629Z,69.59
2018-11-07T13:05:15.928Z,69.21
2018-11-07T13:07:44.378Z,68.50
2018-11-07T13:10:14.128Z,67.47
2018-11-07T13:12:43.499Z,66.68
2018-11-07T13:15:12.317Z,65.19
2018-11-07T13:17:39.435Z,64.52
2018-11-07T13:20:13.244Z,66.30
2018-11-07T13:22:42.591Z,67.03
2018-11-07T13:25:10.968Z,67.81
2018-11-07T13:27:38.312Z,68.55
2018-11-07T13:30:10.986Z,68.34
2018-11-07T13:32:38.344Z,67.78
2018-11-07T13:35:08.356Z,68.13
2018-11-07T13:37:36.113Z,66.55
2018-11-07T13:40:05.089Z,68.23
2018-11-07T13:42:32.402Z,69.19
2018-11-07T13:44:59.876Z,67.28
2018-11-07T13:47:27.353Z,68.37
2018-11-07T13:49:54.676Z,69.41
2018-11-07T13:52:22.098Z,69.65
2018-11-07T13:54:49.613Z,70.83
2018-11-07T13:57:16.788Z,71.05
2018-11-07T13:59:43.868Z,72.04
2018-11-07T14:02:10.975Z,71.67
2018-11-07T14:04:38.163Z,71.49
2018-11-07T14:07:05.905Z,71.79
2018-11-07T14:09:33.003Z,73.13
2018-11-07T14:12:00.137Z,72.88
2018-11-07T14:14:27.346Z,72.58
2018-11-07T14:16:54.473Z,73.33
2018-11-07T14:19:21.586Z,73.09
2018-11-07T14:21:48.741Z,73.46
2018-11-07T14:24:15.820Z,74.50
2018-11-07T14:26:42.939Z,74.28
2018-11-07T14:29:10.044Z,74.83
2018-11-07T14:31:37.186Z,73.66
2018-11-07T14:34:05.828Z,74.49
2018-11-07T14:36:32.952Z,73.98
2018-11-07T14:39:00.401Z,74.17
2018-11-07T14:41:27.565Z,75.59
2018-11-07T14:43:54.988Z,76.61
2018-11-07T14:46:22.085Z,76.01
2018-11-07T14:48:49.239Z,76.10
2018-11-07T14:51:16.420Z,75.14
2018-11-07T14:53:43.639Z,76.50
2018-11-07T14:56:10.714Z,75.75
2018-11-07T14:58:37.796Z,75.27
2018-11-07T15:01:04.981Z,75.95
2018-11-07T15:03:32.139Z,76.56
2018-11-07T15:06:00.704Z,76.95
2018-11-07T15:08:27.878Z,76.66
2018-11-07T15:10:54.967Z,76.45
2018-11-07T15:13:22.039Z,76.43
2018-11-07T15:15:49.139Z,77.23
2018-11-07T15:18:16.329Z,75.54
2018-11-07T15:20:43.403Z,75.74
2018-11-07T15:23:10.584Z,74.94
2018-11-07T15:25:37.684Z,74.90
2018-11-07T15:28:04.880Z,74.86
2018-11-07T15:30:31.979Z,74.91
2018-11-07T15:32:59.055Z,75.12
2018-11-07T15:35:26.212Z,75.47
2018-11-07T15:37:53.301Z,75.08
2018-11-07T15:40:20.563Z,75.18
2018-11-07T15:42:47.644Z,74.82
2018-11-07T15:45:17.001Z,75.75
2018-11-07T15:47:44.165Z,75.81
2018-11-07T15:50:16.987Z,76.33
2018-11-07T15:52:46.109Z,76.57
2018-11-07T15:55:13.200Z,76.82
2018-11-07T15:57:40.536Z,77.16
2018-11-07T16:00:11.551Z,77.32
2018-11-07T16:02:40.306Z,78.16
2018-11-07T16:05:08.635Z,78.85
2018-11-07T16:07:36.096Z,78.91
2018-11-07T16:10:04.857Z,78.80
2018-11-07T16:12:32.074Z,79.81
2018-11-07T16:14:59.460Z,79.83
2018-11-07T16:17:27.052Z,80.70
2018-11-07T16:19:54.402Z,81.47
2018-11-07T16:22:21.496Z,82.94
2018-11-07T16:24:49.566Z,81.30
2018-11-07T16:27:18.014Z,78.11
2018-11-07T16:29:46.759Z,78.36
2018-11-07T16:32:21.565Z,78.10
2018-11-07T16:34:50.919Z,79.40
2018-11-07T16:37:20.412Z,78.15
2018-11-07T16:39:48.345Z,79.05
2018-11-07T16:42:16.899Z,78.72
2018-11-07T16:44:44.719Z,78.97
2018-11-07T16:47:12.032Z,78.64
2018-11-07T16:49:39.563Z,79.48
2018-11-07T16:52:06.964Z,80.75
2018-11-07T16:54:34.384Z,80.81
2018-11-07T16:57:02.085Z,81.16
2018-11-07T16:59:29.186Z,80.39
2018-11-07T17:01:56.324Z,81.40
2018-11-07T17:04:23.821Z,83.29
2018-11-07T17:06:51.604Z,83.68
2018-11-07T17:09:18.843Z,82.68
2018-11-07T17:11:45.906Z,82.07
2018-11-07T17:14:13.135Z,82.61
2018-11-07T17:16:40.216Z,81.96
2018-11-07T17:19:07.362Z,82.66
2018-11-07T17:21:34.467Z,84.23
2018-11-07T17:24:01.589Z,84.74
2018-11-07T17:26:28.778Z,84.59
2018-11-07T17:28:55.864Z,84.46
2018-11-07T17:31:22.988Z,86.47
2018-11-07T17:33:50.036Z,86.22
2018-11-07T17:36:17.360Z,85.63
2018-11-07T17:38:44.595Z,85.51
2018-11-07T17:41:11.692Z,85.37
2018-11-07T17:43:41.808Z,85.26
2018-11-07T17:46:09.300Z,85.00
2018-11-07T17:48:36.523Z,84.34
2018-11-07T17:51:03.810Z,85.33
2018-11-07T17:53:31.198Z,85.35
2018-11-07T17:55:58.315Z,84.15
2018-11-07T17:58:25.540Z,83.99
2018-11-07T18:00:53.064Z,83.79
2018-11-07T18:03:20.688Z,84.76
2018-11-07T18:05:47.826Z,85.93
2018-11-07T18:08:15.232Z,87.44
2018-11-07T18:10:43.706Z,87.93
2018-11-07T18:13:10.953Z,87.71
2018-11-07T18:15:38.221Z,88.14
2018-11-07T18:18:11.384Z,87.47
2018-11-07T18:20:41.715Z,85.80
2018-11-07T18:23:08.933Z,86.91
2018-11-07T18:25:38.653Z,87.43
2018-11-07T18:28:12.156Z,88.04
2018-11-07T18:30:42.590Z,90.97
2018-11-07T18:33:14.131Z,92.81
2018-11-07T18:35:47.989Z,93.69
2018-11-07T18:40:54.697Z,95.08
2018-11-07T18:43:28.100Z,94.71
2018-11-07T18:46:00.420Z,94.91
2018-11-07T18:48:29.571Z,94.83
2018-11-07T18:51:02.353Z,95.13
2018-11-07T18:53:34.072Z,95.48
2018-11-07T18:56:05.509Z,95.03
2018-11-07T18:58:38.602Z,95.21
2018-11-07T19:01:08.189Z,95.92
2018-11-07T19:03:38.400Z,96.10
2018-11-07T19:06:12.687Z,95.61
2018-11-07T19:08:46.866Z,95.27
2018-11-07T19:11:20.497Z,95.36
2018-11-07T19:13:51.841Z,95.93
2018-11-07T19:16:28.232Z,96.09
2018-11-07T19:21:48.108Z,98.71
2018-11-07T19:24:23.683Z,97.50
2018-11-07T19:29:36.847Z,98.69
2018-11-07T19:32:07.434Z,99.01
2018-11-07T19:34:42.984Z,99.31
2018-11-07T19:37:19.986Z,99.07
2018-11-07T19:39:53.487Z,100.00
2018-11-07T19:42:34.443Z,100.00
2018-11-07T19:45:05.008Z,100.00
2018-11-07T19:47:41.298Z,99.41
2018-11-07T19:50:13.052Z,100.00
2018-11-07T19:52:49.431Z,98.26
2018-11-07T19:55:23.351Z,98.65
2018-11-07T19:57:56.663Z,99.13
2018-11-07T20:00:30.971Z,99.53
2018-11-07T20:03:07.409Z,100.00
2018-11-07T20:05:37.577Z,99.45
2018-11-07T20:08:07.332Z,99.05
2018-11-07T20:10:40.061Z,99.79
2018-11-07T20:13:15.773Z,99.50
2018-11-07T20:15:46.337Z,99.11
2018-11-07T20:18:15.599Z,99.32
2018-11-07T20:20:48.772Z,99.43
2018-11-07T20:23:21.341Z,99.75
2018-11-07T20:26:09.895Z,99.91
2018-11-07T20:28:40.122Z,100.00
2018-11-07T20:31:09.301Z,99.70
2018-11-07T20:33:39.804Z,98.78
2018-11-07T20:36:08.391Z,98.58
2018-11-07T20:38:40.874Z,100.00
2018-11-07T20:41:16.226Z,100.00
2018-11-07T20:43:54.982Z,98.78
2018-11-07T20:46:30.952Z,98.93
2018-11-07T20:49:03.536Z,99.35
2018-11-07T20:51:33.799Z,99.43
2018-11-07T20:54:07.317Z,98.53
2018-11-07T20:56:38.028Z,98.77
2018-11-07T20:59:14.705Z,97.25
2018-11-07T21:01:41.909Z,97.99
2018-11-07T21:04:14.707Z,97.77
2018-11-07T21:06:49.908Z,97.89
2018-11-07T21:09:29.172Z,98.21
2018-11-07T21:11:59.291Z,98.44
2018-11-07T21:14:28.599Z,98.74
2018-11-07T21:17:00.205Z,99.18
2018-11-07T21:19:31.689Z,98.92
2018-11-07T21:22:08.727Z,98.72
2018-11-07T21:24:39.360Z,98.25
2018-11-07T21:27:11.892Z,97.45
2018-11-07T21:29:44.876Z,98.02
2018-11-07T21:32:16.764Z,97.54
2018-11-07T21:34:51.564Z,97.53
2018-11-07T21:37:29.194Z,97.63
2018-11-07T21:40:01.212Z,98.14
2018-11-07T21:42:37.187Z,98.21
2018-11-07T21:45:11.042Z,97.53
2018-11-07T21:47:41.545Z,98.19
2018-11-07T21:50:14.911Z,97.80
2018-11-07T21:52:44.662Z,98.52
2018-11-07T21:55:15.170Z,98.64
2018-11-07T21:57:44.907Z,98.98
2018-11-07T22:00:17.884Z,99.47
2018-11-07T22:02:54.039Z,99.38
2018-11-07T22:05:25.216Z,99.20
2018-11-07T22:07:54.243Z,100.00
2018-11-07T22:10:25.164Z,100.00
2018-11-07T22:12:58.765Z,100.00
2018-11-07T22:15:26.848Z,100.00
2018-11-07T22:17:59.584Z,100.00
2018-11-07T22:20:30.733Z,100.00
2018-11-07T22:23:05.762Z,100.00
2018-11-07T22:25:36.857Z,100.00
2018-11-07T22:28:15.579Z,100.00
2018-11-07T22:30:49.269Z,100.00
2018-11-07T22:33:26.850Z,100.00
2018-11-07T22:36:09.141Z,99.68
2018-11-07T22:38:45.246Z,99.66
2018-11-07T22:41:19.175Z,100.00
2018-11-07T22:43:54.676Z,99.40
2018-11-07T22:46:31.575Z,99.65
2018-11-07T22:49:03.503Z,98.87
2018-11-07T22:51:33.811Z,99.35
2018-11-07T22:54:05.406Z,97.38
2018-11-07T22:56:32.646Z,98.36
2018-11-07T22:59:00.032Z,98.48
2018-11-07T23:01:33.385Z,98.51
2018-11-07T23:04:00.720Z,98.22
2018-11-07T23:06:28.037Z,98.40
2018-11-07T23:08:55.236Z,98.28
2018-11-07T23:11:22.380Z,98.36
2018-11-07T23:13:49.542Z,98.26
2018-11-07T23:16:16.876Z,97.34
2018-11-07T23:18:44.364Z,97.55
2018-11-07T23:21:11.577Z,96.83
2018-11-07T23:23:39.058Z,97.15
2018-11-07T23:26:06.220Z,96.67
2018-11-07T23:28:33.417Z,97.67
2018-11-07T23:31:00.893Z,97.33
2018-11-07T23:33:28.037Z,97.11
2018-11-07T23:35:55.545Z,96.98
2018-11-07T23:38:23.378Z,95.16
2018-11-07T23:40:50.534Z,95.62
2018-11-07T23:43:17.815Z,95.26
2018-11-07T23:45:44.972Z,94.38
2018-11-07T23:48:12.368Z,95.40
2018-11-07T23:50:39.629Z,95.21
2018-11-07T23:53:07.076Z,95.95
2018-11-07T23:55:34.317Z,95.39
2018-11-07T23:58:01.893Z,94.90
